Time;durP1;ratioP1;P1;durP2;ratioP2;P2;SDS_P1;SDS_P2;PMS_P1;PMS_P2;Temp;Humidity;BMP_temperature;BMP_pressure;BME280_temperature;BME280_humidity;BME280_pressure;Samples;Min_cycle;Max_cycle;Signal;HPM_P1;HPM_P2
2023/09/11 00:10:53;;;;;;;14.7;12.1;;;;;;;16.05;90.07;;;;;
2023/09/11 00:21:53;;;;;;;15.1;13.4;;;;;;;15.88;89.4;;;;;
2023/09/11 00:31:53;;;;;;;15.1;13.4;;;;;;;15.69;88.98;;;;;
2023/09/11 00:41:53;;;;;;;15.1;13.4;;;;;;;15.51;88.93;;;;;
2023/09/11 00:51:53;;;;;;;15;10.5;;;;;;;15.37;89.07;;;;;
2023/09/11 01:02:53;;;;;;;15;10.5;;;;;;;15.23;90.19;;;;;
2023/09/11 01:12:53;;;;;;;15;10.5;;;;;;;15.22;91.2;;;;;
2023/09/11 01:23:53;;;;;;;12.9;10.3;;;;;;;15.11;90.96;;;;;
2023/09/11 01:34:53;;;;;;;12.9;10.3;;;;;;;15;90.44;;;;;
2023/09/11 01:44:53;;;;;;;12.9;10.3;;;;;;;14.86;89.97;;;;;
2023/09/11 01:55:55;;;;;;;12.8;9.9;;;;;;;14.72;89.98;;;;;
2023/09/11 02:06:53;;;;;;;12.8;9.9;;;;;;;14.61;89.9;;;;;
2023/09/11 02:16:53;;;;;;;12.8;9.9;;;;;;;14.58;90.13;;;;;
2023/09/11 02:26:53;;;;;;;14.2;8.6;;;;;;;14.52;91;;;;;
2023/09/11 02:36:53;;;;;;;14.2;8.6;;;;;;;14.46;91.95;;;;;
2023/09/11 02:46:53;;;;;;;14.2;8.6;;;;;;;14.44;91.6;;;;;
2023/09/11 02:56:54;;;;;;;11.3;8.6;;;;;;;14.42;91.8;;;;;
2023/09/11 03:06:54;;;;;;;11.3;8.6;;;;;;;14.45;91.73;;;;;
2023/09/11 03:17:54;;;;;;;11.1;9.1;;;;;;;14.39;91.3;;;;;
2023/09/11 03:27:54;;;;;;;11.1;9.1;;;;;;;14.29;90.9;;;;;
2023/09/11 03:38:54;;;;;;;11.1;9.1;;;;;;;14.14;90.63;;;;;
2023/09/11 03:48:54;;;;;;;12.2;8.7;;;;;;;14.05;90.52;;;;;
2023/09/11 03:59:54;;;;;;;12.2;8.7;;;;;;;13.95;90.47;;;;;
2023/09/11 04:10:54;;;;;;;12.2;8.7;;;;;;;13.94;91.62;;;;;
2023/09/11 04:21:54;;;;;;;11.8;8.9;;;;;;;13.95;91.73;;;;;
2023/09/11 04:32:54;;;;;;;11.8;8.9;;;;;;;13.95;91.64;;;;;
2023/09/11 04:42:54;;;;;;;11.8;8.9;;;;;;;13.95;91.59;;;;;
2023/09/11 04:52:56;;;;;;;11.3;6.7;;;;;;;14.08;91.5;;;;;
2023/09/11 05:02:54;;;;;;;11.3;6.7;;;;;;;14.27;91.74;;;;;
2023/09/11 05:13:54;;;;;;;11.3;6.7;;;;;;;14.66;91.78;;;;;
2023/09/11 05:23:54;;;;;;;11.8;8.9;;;;;;;15.06;91.45;;;;;
2023/09/11 05:33:54;;;;;;;11.8;8.9;;;;;;;15.41;90.65;;;;;
2023/09/11 05:44:55;;;;;;;11.8;8.9;;;;;;;15.83;89.66;;;;;
2023/09/11 05:55:55;;;;;;;;;;;;;;;;;;;;;
2023/09/11 06:06:54;;;;;;;;;;;;;;;;;;;;;
2023/09/11 06:17:54;;;;;;;;;;;;;;;;;;;;;
2023/09/11 06:28:54;;;;;;;;;;;;;;;;;;;;;
2023/09/11 06:38:54;;;;;;;;;;;;;;;;;;;;;
2023/09/11 06:48:54;;;;;;;20.9;11.1;;;;;;;18.83;84.68;;;;;
2023/09/11 06:58:54;;;;;;;20.9;11.1;;;;;;;19.46;84.1;;;;;
2023/09/11 07:09:54;;;;;;;19.3;9.5;;;;;;;20.1;82.37;;;;;
2023/09/11 07:20:54;;;;;;;19.3;9.5;;;;;;;20.79;80.54;;;;;
2023/09/11 07:30:54;;;;;;;19.3;9.5;;;;;;;21.4;76.56;;;;;
2023/09/11 07:40:55;;;;;;;11.5;6.9;;;;;;;21.9;74.52;;;;;
2023/09/11 07:51:54;;;;;;;11.5;6.9;;;;;;;22.36;72.5;;;;;
2023/09/11 08:01:54;;;;;;;11.5;6.9;;;;;;;22.82;72.33;;;;;
2023/09/11 08:12:54;;;;;;;9;6.2;;;;;;;23.3;69.8;;;;;
2023/09/11 08:22:54;;;;;;;9;6.2;;;;;;;23.73;68.73;;;;;
2023/09/11 08:33:55;;;;;;;9;6.2;;;;;;;24.09;66.62;;;;;
2023/09/11 08:43:54;;;;;;;10.1;6.4;;;;;;;24.54;66.98;;;;;
2023/09/11 08:54:54;;;;;;;10.1;6.4;;;;;;;24.83;62.78;;;;;
2023/09/11 09:05:54;;;;;;;10.1;6.4;;;;;;;25;63.95;;;;;
2023/09/11 09:15:54;;;;;;;11.4;6.9;;;;;;;25.44;61.11;;;;;
2023/09/11 09:26:54;;;;;;;11.4;6.9;;;;;;;25.73;56.75;;;;;
2023/09/11 09:36:54;;;;;;;11.4;6.9;;;;;;;26;55.39;;;;;
2023/09/11 09:46:54;;;;;;;8.5;6.4;;;;;;;26.09;54.24;;;;;
2023/09/11 09:56:54;;;;;;;8.5;6.4;;;;;;;26.24;55.47;;;;;
2023/09/11 10:06:55;;;;;;;8.5;6.4;;;;;;;26.53;56.47;;;;;
2023/09/11 10:17:55;;;;;;;9.1;6.1;;;;;;;26.43;55.79;;;;;
2023/09/11 10:27:54;;;;;;;9.1;6.1;;;;;;;26.9;53.88;;;;;
2023/09/11 10:38:54;;;;;;;9.2;5.8;;;;;;;27.21;54.32;;;;;
2023/09/11 10:48:54;;;;;;;9.2;5.8;;;;;;;27.11;56.35;;;;;
2023/09/11 10:59:54;;;;;;;9.2;5.8;;;;;;;27.53;56.29;;;;;
2023/09/11 11:09:54;;;;;;;10.1;6.8;;;;;;;27.68;53.23;;;;;
2023/09/11 11:19:54;;;;;;;10.1;6.8;;;;;;;27.52;55.27;;;;;
2023/09/11 11:30:54;;;;;;;10.1;6.8;;;;;;;27.78;52.67;;;;;
2023/09/11 11:41:54;;;;;;;10.2;5.8;;;;;;;27.89;52.58;;;;;
2023/09/11 11:51:54;;;;;;;10.2;5.8;;;;;;;27.84;50.93;;;;;
2023/09/11 12:01:54;;;;;;;10.2;5.8;;;;;;;28.05;52.58;;;;;
2023/09/11 12:12:55;;;;;;;11.8;6;;;;;;;28.18;51.51;;;;;
2023/09/11 12:22:54;;;;;;;11.8;6;;;;;;;28.28;49.93;;;;;
2023/09/11 12:33:54;;;;;;;11.8;6;;;;;;;28.47;51.31;;;;;
2023/09/11 12:43:54;;;;;;;10.2;6.1;;;;;;;28.34;50.42;;;;;
2023/09/11 12:53:54;;;;;;;10.2;6.1;;;;;;;28.47;48.66;;;;;
2023/09/11 13:03:54;;;;;;;10.2;6.1;;;;;;;28.55;47.56;;;;;
2023/09/11 13:14:54;;;;;;;9.7;6.5;;;;;;;28.58;48.43;;;;;
2023/09/11 13:24:54;;;;;;;9.7;6.5;;;;;;;28.69;48.84;;;;;
2023/09/11 13:34:54;;;;;;;9.7;6.5;;;;;;;28.72;47.39;;;;;
2023/09/11 13:44:54;;;;;;;8.9;6.2;;;;;;;28.85;47.02;;;;;
2023/09/11 13:55:54;;;;;;;8.9;6.2;;;;;;;28.98;48.42;;;;;
2023/09/11 14:06:54;;;;;;;8.9;6.2;;;;;;;28.99;47.22;;;;;
2023/09/11 14:17:54;;;;;;;9.3;5.8;;;;;;;29.11;47.42;;;;;
2023/09/11 14:28:54;;;;;;;9.3;5.8;;;;;;;29.34;46.45;;;;;
2023/09/11 14:38:55;;;;;;;10;5.8;;;;;;;29.43;46.7;;;;;
2023/09/11 14:48:54;;;;;;;10;5.8;;;;;;;29.64;46.45;;;;;
2023/09/11 14:58:54;;;;;;;10;5.8;;;;;;;29.57;46.1;;;;;
2023/09/11 15:09:54;;;;;;;8.1;5.5;;;;;;;29.91;44.66;;;;;
2023/09/11 15:20:55;;;;;;;8.1;5.5;;;;;;;32.36;43.73;;;;;
2023/09/11 15:30:55;;;;;;;8.1;5.5;;;;;;;33.3;42.16;;;;;
2023/09/11 15:41:54;;;;;;;11.9;6.5;;;;;;;33.53;42.87;;;;;
2023/09/11 15:51:54;;;;;;;11.9;6.5;;;;;;;33.73;44.34;;;;;
2023/09/11 16:01:54;;;;;;;11.9;6.5;;;;;;;33.29;43.57;;;;;
2023/09/11 16:11:55;;;;;;;8.1;5.3;;;;;;;31.59;49;;;;;
2023/09/11 16:22:57;;;;;;;8.1;5.3;;;;;;;30.23;50.9;;;;;
2023/09/11 16:32:57;;;;;;;8.1;5.3;;;;;;;28.75;53.31;;;;;
2023/09/11 16:42:55;;;;;;;12.6;6.4;;;;;;;27.33;56.3;;;;;
2023/09/11 16:53:55;;;;;;;12.6;6.4;;;;;;;26.19;59.58;;;;;
2023/09/11 17:03:55;;;;;;;12.6;6.4;;;;;;;25.37;62.81;;;;;
2023/09/11 17:14:54;;;;;;;16;10.4;;;;;;;24.54;66.37;;;;;
2023/09/11 17:24:56;;;;;;;16;10.4;;;;;;;23.91;68.9;;;;;
2023/09/11 17:35:55;;;;;;;16;10.4;;;;;;;23.26;70.81;;;;;
2023/09/11 17:45:54;;;;;;;18;11.5;;;;;;;22.69;72.19;;;;;
2023/09/11 17:56:55;;;;;;;18;11.5;;;;;;;22.25;73.18;;;;;
2023/09/11 18:07:55;;;;;;;18;11.5;;;;;;;21.91;74.56;;;;;
2023/09/11 18:17:55;;;;;;;34;25.2;;;;;;;21.51;74.02;;;;;
2023/09/11 18:28:55;;;;;;;34;25.2;;;;;;;21.21;74.4;;;;;
2023/09/11 18:38:55;;;;;;;22.5;19.5;;;;;;;21;75.35;;;;;
2023/09/11 18:49:55;;;;;;;22.5;19.5;;;;;;;20.77;75.67;;;;;
2023/09/11 19:00:55;;;;;;;22.5;19.5;;;;;;;20.64;76.92;;;;;
2023/09/11 19:11:55;;;;;;;34.8;27.8;;;;;;;20.51;77.82;;;;;
2023/09/11 19:21:55;;;;;;;34.8;27.8;;;;;;;20.36;78.74;;;;;
2023/09/11 19:31:55;;;;;;;34.8;27.8;;;;;;;20.2;80.39;;;;;
2023/09/11 19:42:56;;;;;;;29.5;26;;;;;;;19.99;80.02;;;;;
2023/09/11 19:53:55;;;;;;;29.5;26;;;;;;;19.81;81.27;;;;;
2023/09/11 20:03:55;;;;;;;29.5;26;;;;;;;19.6;81.25;;;;;
2023/09/11 20:13:55;;;;;;;28.8;23.7;;;;;;;19.42;81.71;;;;;
2023/09/11 20:23:55;;;;;;;28.8;23.7;;;;;;;19.21;82.74;;;;;
2023/09/11 20:35:01;;;;;;;28.8;23.7;;;;;;;19.01;83.61;;;;;
2023/09/11 20:44:55;;;;;;;33.7;29.6;;;;;;;18.95;85.27;;;;;
2023/09/11 20:55:55;;;;;;;33.7;29.6;;;;;;;18.87;86.4;;;;;
2023/09/11 21:06:55;;;;;;;33.7;29.6;;;;;;;18.77;85.47;;;;;
2023/09/11 21:17:55;;;;;;;30.4;23.2;;;;;;;18.73;86.61;;;;;
2023/09/11 21:27:55;;;;;;;30.4;23.2;;;;;;;18.74;87.11;;;;;
2023/09/11 21:38:55;;;;;;;23.8;19.6;;;;;;;18.73;86.95;;;;;
2023/09/11 21:49:55;;;;;;;23.8;19.6;;;;;;;18.68;88.1;;;;;
2023/09/11 22:00:55;;;;;;;23.8;19.6;;;;;;;18.75;87.95;;;;;
2023/09/11 22:11:57;;;;;;;26.2;18.8;;;;;;;18.64;88.45;;;;;
2023/09/11 22:22:55;;;;;;;26.2;18.8;;;;;;;18.58;88.75;;;;;
2023/09/11 22:33:55;;;;;;;26.2;18.8;;;;;;;18.42;88.67;;;;;
2023/09/11 22:43:55;;;;;;;23.8;17;;;;;;;18.32;87.99;;;;;
2023/09/11 22:54:55;;;;;;;23.8;17;;;;;;;18.17;87.92;;;;;
2023/09/11 23:04:55;;;;;;;23.8;17;;;;;;;17.98;88.48;;;;;
2023/09/11 23:15:55;;;;;;;20.6;16.2;;;;;;;17.82;88.38;;;;;
2023/09/11 23:25:55;;;;;;;20.6;16.2;;;;;;;17.65;89.37;;;;;
2023/09/11 23:36:55;;;;;;;20.6;16.2;;;;;;;17.52;88.87;;;;;
2023/09/11 23:47:55;;;;;;;17.6;14.6;;;;;;;17.35;88.46;;;;;
2023/09/11 23:58:55;;;;;;;17.6;14.6;;;;;;;17.21;88.28;;;;;
